»·PEaware :: N221XG KTVL-KTRK

N221XG :: KTVL-KTRK

FLIGHT INFORMATION

Flight Status: Arrived
Operator: Privately registered:
United States
More flights under this callsign
Pilot: Ryan L. (9775)
Aircraft: BEECH AIRCRAFT SUPER KING AIR 350
(B350)
More flights by this aircraft type
Origin: KTVL Lake Tahoe
United States
Destination: KTRK Truckee-Tahoe
United States
More flights between these airports :: More routes between these airports
Route: RICHY6 SWR TRUCK
File this flight plan on PilotEdge
Remarks: RNAV Z RWY 20
Altitude:
(Current/Filed)
12,000ft
Speed:
(Current/Filed)
250kts
Departed: 01-Dec-19 08:28 AM
Arrived: 01-Dec-19 08:55 AM
Distance/Time
Traveled:
26nm/0:27
Distance/Time
To Go:
Arrived

Flight Plot

Page will automatically refresh every two minutes.

Flight plan parsing failed; only flown route is shown


Map Options




Map Legend


Flown Route
Filed Route
Departure Airport
Arrival Airport
Navaid (VOR, NDB)
Fix

Horizontal Profiles

Position Reports

Time Latitude Longitude Heading Altitude Ground
Speed
01-Dec-19 08:08 38.889651 -119.999147 102 6269ft 0kts
01-Dec-19 08:09 38.889651 -119.999147 102 6269ft 0kts
01-Dec-19 08:10 38.889651 -119.999147 102 6269ft 0kts
01-Dec-19 08:11 38.889651 -119.999147 102 6269ft 0kts
01-Dec-19 08:12 38.889651 -119.999147 102 6269ft 0kts
01-Dec-19 08:13 38.889651 -119.999147 102 6269ft 0kts
01-Dec-19 08:14 38.889651 -119.999147 102 6269ft 0kts
01-Dec-19 08:15 38.889651 -119.999147 102 6269ft 0kts
01-Dec-19 08:16 38.889651 -119.999147 102 6269ft 0kts
01-Dec-19 08:17 38.889651 -119.999147 102 6269ft 0kts
01-Dec-19 08:18 38.889651 -119.999147 102 6269ft 0kts
01-Dec-19 08:19 38.889651 -119.999147 102 6269ft 0kts
01-Dec-19 08:20 38.889651 -119.999147 102 6269ft 0kts
01-Dec-19 08:21 38.889636 -119.999058 102 6269ft 3kts
01-Dec-19 08:22 38.888273 -119.998029 191 6269ft 11kts
01-Dec-19 08:23 38.884222 -119.999232 193 6269ft 16kts
01-Dec-19 08:24 38.882803 -119.999473 141 6269ft 0kts
01-Dec-19 08:26 38.882686 -119.999224 106 6269ft 5kts
01-Dec-19 08:27 38.883129 -119.998509 11 6269ft 9kts
01-Dec-19 08:28 38.910838 -119.996520 346 7521ft 121kts
01-Dec-19 08:29 38.953597 -120.009660 357 9001ft 175kts
01-Dec-19 08:30 39.004973 -120.029329 308 10494ft 209kts
01-Dec-19 08:31 39.042937 -120.080913 300 12015ft 209kts
01-Dec-19 08:32 39.082433 -120.135010 300 12003ft 205kts
01-Dec-19 08:33 39.121024 -120.188000 300 12012ft 205kts
01-Dec-19 08:34 39.160131 -120.241792 300 12012ft 205kts
01-Dec-19 08:35 39.215270 -120.255534 16 12029ft 246kts
01-Dec-19 08:36 39.281172 -120.227455 14 12013ft 251kts
01-Dec-19 08:37 39.347724 -120.199570 14 12015ft 253kts
01-Dec-19 08:38 39.415163 -120.171259 14 12016ft 255kts
01-Dec-19 08:39 39.479123 -120.129741 29 12017ft 259kts
01-Dec-19 08:40 39.540679 -120.082090 30 11819ft 256kts
01-Dec-19 08:41 39.600790 -120.035433 31 11189ft 245kts
01-Dec-19 08:42 39.662547 -120.007884 11 11043ft 232kts
01-Dec-19 08:42 39.715119 -119.990619 4 11042ft 233kts
01-Dec-19 08:44 39.729974 -120.035121 186 11055ft 158kts
01-Dec-19 08:45 39.686033 -120.025338 160 11051ft 173kts
01-Dec-19 08:45 39.650528 -120.011682 200 11062ft 157kts
01-Dec-19 08:47 39.600530 -120.030054 197 11011ft 161kts
01-Dec-19 08:48 39.559688 -120.044313 193 9659ft 149kts
01-Dec-19 08:48 39.527560 -120.055489 193 9518ft 140kts
01-Dec-19 08:50 39.484292 -120.070585 192 9513ft 135kts
01-Dec-19 08:50 39.452629 -120.081889 191 8876ft 142kts
01-Dec-19 08:51 39.413762 -120.095775 193 7981ft 148kts
01-Dec-19 08:53 39.366896 -120.112518 196 6899ft 150kts
01-Dec-19 08:53 39.336404 -120.123765 210 6154ft 118kts
01-Dec-19 08:54 39.317562 -120.137720 221 5904ft 11kts
01-Dec-19 08:55 39.317443 -120.139823 293 5904ft 0kts
01-Dec-19 08:56 39.317443 -120.139823 293 5904ft 0kts
01-Dec-19 08:57 39.317443 -120.139823 293 5904ft 0kts
01-Dec-19 08:58 39.317443 -120.139823 293 5904ft 0kts
01-Dec-19 08:59 39.317443 -120.139823 293 5904ft 0kts
01-Dec-19 09:00 39.317443 -120.139823 293 5904ft 0kts
01-Dec-19 09:01 39.317443 -120.139823 293 5904ft 0kts
01-Dec-19 09:02 39.317443 -120.139823 293 5904ft 0kts
01-Dec-19 09:03 39.317443 -120.139823 293 5904ft 0kts
01-Dec-19 09:04 39.317443 -120.139823 293 5904ft 0kts
01-Dec-19 09:05 39.317443 -120.139823 293 5904ft 0kts
01-Dec-19 09:06 39.317443 -120.139823 293 5904ft 0kts
01-Dec-19 09:07 39.317443 -120.139823 293 5904ft 0kts
01-Dec-19 09:08 39.317443 -120.139823 293 5904ft 0kts
01-Dec-19 09:09 39.317443 -120.139823 293 5904ft 0kts

Navigation Log

Ident Type
Flight plan parsing failed, navigation log unavailable